sensor_id;sensor_type;location;lat;lon;timestamp;P1;durP1;ratioP1;P2;durP2;ratioP2
11500;SDS011;5807;51.606;7.624;2022-09-03T00:03:09;2.10;;;2.00;;
11500;SDS011;5807;51.606;7.624;2022-09-03T00:05:49;1.87;;;1.77;;
11500;SDS011;5807;51.606;7.624;2022-09-03T00:08:52;2.13;;;2.03;;
11500;SDS011;5807;51.606;7.624;2022-09-03T00:12:16;1.73;;;1.63;;
11500;SDS011;5807;51.606;7.624;2022-09-03T00:24:45;1.60;;;1.50;;
11500;SDS011;5807;51.606;7.624;2022-09-03T00:27:38;1.97;;;1.83;;
11500;SDS011;5807;51.606;7.624;2022-09-03T00:30:11;1.90;;;1.80;;
11500;SDS011;5807;51.606;7.624;2022-09-03T00:39:11;1.67;;;1.60;;
11500;SDS011;5807;51.606;7.624;2022-09-03T00:45:10;2.10;;;1.60;;
11500;SDS011;5807;51.606;7.624;2022-09-03T02:20:59;1.70;;;1.60;;
11500;SDS011;5807;51.606;7.624;2022-09-03T02:23:49;1.60;;;1.50;;
11500;SDS011;5807;51.606;7.624;2022-09-03T03:04:40;2.00;;;1.90;;
11500;SDS011;5807;51.606;7.624;2022-09-03T03:07:35;1.90;;;1.80;;
11500;SDS011;5807;51.606;7.624;2022-09-03T03:10:42;2.03;;;1.80;;
11500;SDS011;5807;51.606;7.624;2022-09-03T03:17:43;1.90;;;1.80;;
11500;SDS011;5807;51.606;7.624;2022-09-03T03:27:28;1.50;;;1.50;;
11500;SDS011;5807;51.606;7.624;2022-09-03T03:40:07;1.70;;;1.70;;
11500;SDS011;5807;51.606;7.624;2022-09-03T03:46:57;1.70;;;1.60;;
11500;SDS011;5807;51.606;7.624;2022-09-03T03:56:38;1.80;;;1.70;;
11500;SDS011;5807;51.606;7.624;2022-09-03T04:06:05;1.90;;;1.80;;
11500;SDS011;5807;51.606;7.624;2022-09-03T04:31:46;2.03;;;1.93;;
11500;SDS011;5807;51.606;7.624;2022-09-03T04:35:11;2.10;;;1.90;;
11500;SDS011;5807;51.606;7.624;2022-09-03T04:37:48;1.90;;;1.80;;
11500;SDS011;5807;51.606;7.624;2022-09-03T04:46:57;2.13;;;1.70;;
11500;SDS011;5807;51.606;7.624;2022-09-03T05:00:29;1.77;;;1.73;;
11500;SDS011;5807;51.606;7.624;2022-09-03T05:18:50;1.80;;;1.70;;
11500;SDS011;5807;51.606;7.624;2022-09-03T05:23:13;1.70;;;1.60;;
11500;SDS011;5807;51.606;7.624;2022-09-03T05:32:19;1.77;;;1.60;;
11500;SDS011;5807;51.606;7.624;2022-09-03T06:07:45;5.47;;;2.40;;
11500;SDS011;5807;51.606;7.624;2022-09-03T06:14:05;1.87;;;1.77;;
11500;SDS011;5807;51.606;7.624;2022-09-03T06:23:36;1.60;;;1.50;;
11500;SDS011;5807;51.606;7.624;2022-09-03T06:26:18;1.80;;;1.70;;
11500;SDS011;5807;51.606;7.624;2022-09-03T06:28:54;1.80;;;1.70;;
11500;SDS011;5807;51.606;7.624;2022-09-03T06:31:23;1.47;;;1.43;;
11500;SDS011;5807;51.606;7.624;2022-09-03T06:33:51;1.60;;;1.50;;
11500;SDS011;5807;51.606;7.624;2022-09-03T06:36:19;1.80;;;1.73;;
11500;SDS011;5807;51.606;7.624;2022-09-03T06:38:49;1.60;;;1.53;;
11500;SDS011;5807;51.606;7.624;2022-09-03T06:41:18;2.70;;;1.73;;
11500;SDS011;5807;51.606;7.624;2022-09-03T06:43:49;2.07;;;1.70;;
11500;SDS011;5807;51.606;7.624;2022-09-03T06:46:18;2.80;;;1.53;;
11500;SDS011;5807;51.606;7.624;2022-09-03T06:48:49;1.43;;;1.43;;
11500;SDS011;5807;51.606;7.624;2022-09-03T06:51:17;3.17;;;1.50;;
11500;SDS011;5807;51.606;7.624;2022-09-03T06:53:46;4.93;;;1.80;;
11500;SDS011;5807;51.606;7.624;2022-09-03T06:56:16;2.40;;;1.50;;
11500;SDS011;5807;51.606;7.624;2022-09-03T06:58:51;1.47;;;1.40;;
11500;SDS011;5807;51.606;7.624;2022-09-03T07:01:20;1.67;;;1.50;;
11500;SDS011;5807;51.606;7.624;2022-09-03T07:06:22;2.00;;;1.57;;
11500;SDS011;5807;51.606;7.624;2022-09-03T07:08:51;1.63;;;1.60;;
11500;SDS011;5807;51.606;7.624;2022-09-03T07:11:20;1.40;;;1.30;;
11500;SDS011;5807;51.606;7.624;2022-09-03T07:13:50;1.30;;;1.30;;
11500;SDS011;5807;51.606;7.624;2022-09-03T07:20:37;4.73;;;1.43;;
11500;SDS011;5807;51.606;7.624;2022-09-03T07:55:31;1.80;;;1.70;;
11500;SDS011;5807;51.606;7.624;2022-09-03T07:58:01;2.23;;;1.40;;
11500;SDS011;5807;51.606;7.624;2022-09-03T08:00:28;1.77;;;1.40;;
11500;SDS011;5807;51.606;7.624;2022-09-03T08:02:57;2.10;;;1.40;;
11500;SDS011;5807;51.606;7.624;2022-09-03T08:05:30;2.43;;;1.80;;
11500;SDS011;5807;51.606;7.624;2022-09-03T08:07:58;1.70;;;1.43;;
11500;SDS011;5807;51.606;7.624;2022-09-03T08:10:25;1.50;;;1.40;;
11500;SDS011;5807;51.606;7.624;2022-09-03T08:12:56;3.50;;;1.70;;
11500;SDS011;5807;51.606;7.624;2022-09-03T08:15:23;3.00;;;1.73;;
11500;SDS011;5807;51.606;7.624;2022-09-03T08:17:50;1.50;;;1.40;;
11500;SDS011;5807;51.606;7.624;2022-09-03T08:20:18;1.43;;;1.40;;
11500;SDS011;5807;51.606;7.624;2022-09-03T08:22:44;1.47;;;1.37;;
11500;SDS011;5807;51.606;7.624;2022-09-03T08:25:11;1.93;;;1.53;;
11500;SDS011;5807;51.606;7.624;2022-09-03T08:27:38;2.40;;;1.40;;
11500;SDS011;5807;51.606;7.624;2022-09-03T08:30:07;1.23;;;1.23;;
11500;SDS011;5807;51.606;7.624;2022-09-03T08:32:35;3.73;;;1.40;;
11500;SDS011;5807;51.606;7.624;2022-09-03T08:35:03;5.23;;;1.40;;
11500;SDS011;5807;51.606;7.624;2022-09-03T08:37:31;1.30;;;1.30;;
11500;SDS011;5807;51.606;7.624;2022-09-03T08:39:57;2.53;;;1.70;;
11500;SDS011;5807;51.606;7.624;2022-09-03T08:42:27;4.53;;;1.40;;
11500;SDS011;5807;51.606;7.624;2022-09-03T08:45:04;1.87;;;1.40;;
11500;SDS011;5807;51.606;7.624;2022-09-03T08:47:36;2.07;;;1.80;;
11500;SDS011;5807;51.606;7.624;2022-09-03T08:50:07;1.43;;;1.40;;
11500;SDS011;5807;51.606;7.624;2022-09-03T08:52:44;3.17;;;1.70;;
11500;SDS011;5807;51.606;7.624;2022-09-03T08:55:15;2.20;;;1.53;;
11500;SDS011;5807;51.606;7.624;2022-09-03T08:57:48;1.60;;;1.50;;
11500;SDS011;5807;51.606;7.624;2022-09-03T09:00:21;1.60;;;1.50;;
11500;SDS011;5807;51.606;7.624;2022-09-03T09:02:54;1.77;;;1.67;;
11500;SDS011;5807;51.606;7.624;2022-09-03T09:05:35;2.80;;;1.50;;
11500;SDS011;5807;51.606;7.624;2022-09-03T09:08:13;4.60;;;1.50;;
11500;SDS011;5807;51.606;7.624;2022-09-03T09:10:46;1.73;;;1.40;;
11500;SDS011;5807;51.606;7.624;2022-09-03T09:13:19;3.53;;;1.80;;
11500;SDS011;5807;51.606;7.624;2022-09-03T09:15:56;1.60;;;1.50;;
11500;SDS011;5807;51.606;7.624;2022-09-03T09:18:31;3.30;;;1.63;;
11500;SDS011;5807;51.606;7.624;2022-09-03T09:21:08;1.73;;;1.63;;
11500;SDS011;5807;51.606;7.624;2022-09-03T09:23:39;1.70;;;1.47;;
11500;SDS011;5807;51.606;7.624;2022-09-03T09:26:10;6.47;;;1.53;;
11500;SDS011;5807;51.606;7.624;2022-09-03T09:28:40;2.00;;;1.70;;
11500;SDS011;5807;51.606;7.624;2022-09-03T09:31:13;2.50;;;1.60;;
11500;SDS011;5807;51.606;7.624;2022-09-03T09:33:42;1.80;;;1.70;;
11500;SDS011;5807;51.606;7.624;2022-09-03T09:36:13;2.10;;;1.53;;
11500;SDS011;5807;51.606;7.624;2022-09-03T09:38:43;5.93;;;1.60;;
11500;SDS011;5807;51.606;7.624;2022-09-03T09:41:13;4.43;;;1.40;;
11500;SDS011;5807;51.606;7.624;2022-09-03T09:43:41;1.70;;;1.60;;
11500;SDS011;5807;51.606;7.624;2022-09-03T09:46:13;1.90;;;1.63;;
11500;SDS011;5807;51.606;7.624;2022-09-03T09:48:46;1.97;;;1.43;;
11500;SDS011;5807;51.606;7.624;2022-09-03T09:51:19;2.90;;;1.50;;
11500;SDS011;5807;51.606;7.624;2022-09-03T09:53:48;2.23;;;1.50;;
11500;SDS011;5807;51.606;7.624;2022-09-03T09:56:25;2.40;;;1.33;;
11500;SDS011;5807;51.606;7.624;2022-09-03T09:59:00;1.43;;;1.30;;
11500;SDS011;5807;51.606;7.624;2022-09-03T10:01:29;3.07;;;1.50;;
11500;SDS011;5807;51.606;7.624;2022-09-03T10:03:57;1.30;;;1.20;;
11500;SDS011;5807;51.606;7.624;2022-09-03T10:06:26;1.60;;;1.50;;
11500;SDS011;5807;51.606;7.624;2022-09-03T10:09:13;4.20;;;1.47;;
11500;SDS011;5807;51.606;7.624;2022-09-03T10:11:43;2.60;;;1.40;;
11500;SDS011;5807;51.606;7.624;2022-09-03T10:14:16;1.30;;;1.30;;
11500;SDS011;5807;51.606;7.624;2022-09-03T10:16:52;3.30;;;1.50;;
11500;SDS011;5807;51.606;7.624;2022-09-03T10:19:30;1.20;;;1.20;;
11500;SDS011;5807;51.606;7.624;2022-09-03T10:22:06;3.57;;;1.97;;
11500;SDS011;5807;51.606;7.624;2022-09-03T10:24:43;1.30;;;1.30;;
11500;SDS011;5807;51.606;7.624;2022-09-03T10:27:15;1.50;;;1.40;;
11500;SDS011;5807;51.606;7.624;2022-09-03T10:29:43;1.67;;;1.57;;
11500;SDS011;5807;51.606;7.624;2022-09-03T10:32:24;1.40;;;1.40;;
11500;SDS011;5807;51.606;7.624;2022-09-03T10:35:00;1.33;;;1.33;;
11500;SDS011;5807;51.606;7.624;2022-09-03T10:37:37;2.97;;;1.30;;
11500;SDS011;5807;51.606;7.624;2022-09-03T10:40:13;2.07;;;1.60;;
11500;SDS011;5807;51.606;7.624;2022-09-03T10:42:46;1.80;;;1.70;;
11500;SDS011;5807;51.606;7.624;2022-09-03T10:45:22;3.17;;;1.60;;
11500;SDS011;5807;51.606;7.624;2022-09-03T10:50:54;2.10;;;1.30;;
11500;SDS011;5807;51.606;7.624;2022-09-03T10:53:30;1.83;;;1.40;;
11500;SDS011;5807;51.606;7.624;2022-09-03T10:56:06;2.87;;;1.90;;
11500;SDS011;5807;51.606;7.624;2022-09-03T10:58:42;1.50;;;1.40;;
11500;SDS011;5807;51.606;7.624;2022-09-03T11:01:30;1.70;;;1.60;;
11500;SDS011;5807;51.606;7.624;2022-09-03T11:04:09;3.37;;;1.70;;
11500;SDS011;5807;51.606;7.624;2022-09-03T11:06:46;3.80;;;2.00;;
11500;SDS011;5807;51.606;7.624;2022-09-03T11:09:18;1.67;;;1.57;;
11500;SDS011;5807;51.606;7.624;2022-09-03T11:11:50;1.83;;;1.47;;
11500;SDS011;5807;51.606;7.624;2022-09-03T11:14:23;1.80;;;1.70;;
11500;SDS011;5807;51.606;7.624;2022-09-03T11:16:59;1.77;;;1.60;;
11500;SDS011;5807;51.606;7.624;2022-09-03T11:19:33;1.70;;;1.60;;
11500;SDS011;5807;51.606;7.624;2022-09-03T11:22:04;7.13;;;2.00;;
11500;SDS011;5807;51.606;7.624;2022-09-03T11:24:33;3.43;;;1.90;;
11500;SDS011;5807;51.606;7.624;2022-09-03T11:27:04;1.83;;;1.73;;
11500;SDS011;5807;51.606;7.624;2022-09-03T11:29:47;4.90;;;1.93;;
11500;SDS011;5807;51.606;7.624;2022-09-03T11:32:19;2.47;;;2.03;;
11500;SDS011;5807;51.606;7.624;2022-09-03T11:34:51;2.33;;;1.87;;
11500;SDS011;5807;51.606;7.624;2022-09-03T11:37:20;2.90;;;2.70;;
11500;SDS011;5807;51.606;7.624;2022-09-03T11:39:58;2.07;;;1.97;;
11500;SDS011;5807;51.606;7.624;2022-09-03T11:42:33;2.30;;;2.10;;
11500;SDS011;5807;51.606;7.624;2022-09-03T11:45:12;3.00;;;2.40;;
11500;SDS011;5807;51.606;7.624;2022-09-03T11:47:46;2.23;;;2.13;;
11500;SDS011;5807;51.606;7.624;2022-09-03T11:50:19;2.00;;;1.90;;
11500;SDS011;5807;51.606;7.624;2022-09-03T11:52:48;1.90;;;1.80;;
11500;SDS011;5807;51.606;7.624;2022-09-03T11:55:24;2.20;;;2.10;;
11500;SDS011;5807;51.606;7.624;2022-09-03T11:57:54;2.53;;;1.90;;
11500;SDS011;5807;51.606;7.624;2022-09-03T12:00:21;6.47;;;2.20;;
11500;SDS011;5807;51.606;7.624;2022-09-03T12:02:49;4.50;;;2.23;;
11500;SDS011;5807;51.606;7.624;2022-09-03T12:05:23;2.60;;;2.40;;
11500;SDS011;5807;51.606;7.624;2022-09-03T12:08:03;6.00;;;2.30;;
11500;SDS011;5807;51.606;7.624;2022-09-03T12:10:44;2.43;;;2.23;;
11500;SDS011;5807;51.606;7.624;2022-09-03T12:13:25;2.23;;;2.13;;
11500;SDS011;5807;51.606;7.624;2022-09-03T12:18:54;2.17;;;2.07;;
11500;SDS011;5807;51.606;7.624;2022-09-03T12:21:27;2.00;;;1.90;;
11500;SDS011;5807;51.606;7.624;2022-09-03T12:23:54;2.60;;;2.40;;
11500;SDS011;5807;51.606;7.624;2022-09-03T12:26:22;3.73;;;2.50;;
11500;SDS011;5807;51.606;7.624;2022-09-03T12:28:52;2.43;;;2.17;;
11500;SDS011;5807;51.606;7.624;2022-09-03T12:31:21;2.30;;;2.20;;
11500;SDS011;5807;51.606;7.624;2022-09-03T12:33:50;2.57;;;2.20;;
11500;SDS011;5807;51.606;7.624;2022-09-03T12:36:19;2.50;;;2.17;;
11500;SDS011;5807;51.606;7.624;2022-09-03T12:38:48;4.83;;;2.07;;
11500;SDS011;5807;51.606;7.624;2022-09-03T12:41:19;2.40;;;2.30;;
11500;SDS011;5807;51.606;7.624;2022-09-03T12:43:49;2.00;;;1.90;;
11500;SDS011;5807;51.606;7.624;2022-09-03T12:46:18;2.80;;;2.00;;
11500;SDS011;5807;51.606;7.624;2022-09-03T12:48:52;5.33;;;2.30;;
11500;SDS011;5807;51.606;7.624;2022-09-03T12:51:20;2.50;;;2.40;;
11500;SDS011;5807;51.606;7.624;2022-09-03T12:53:48;2.70;;;2.50;;
11500;SDS011;5807;51.606;7.624;2022-09-03T12:56:17;2.87;;;2.50;;
11500;SDS011;5807;51.606;7.624;2022-09-03T12:58:47;3.13;;;2.30;;
11500;SDS011;5807;51.606;7.624;2022-09-03T13:01:19;2.53;;;2.20;;
11500;SDS011;5807;51.606;7.624;2022-09-03T13:03:52;4.07;;;2.60;;
11500;SDS011;5807;51.606;7.624;2022-09-03T13:06:22;2.40;;;2.20;;
11500;SDS011;5807;51.606;7.624;2022-09-03T13:08:53;2.60;;;2.50;;
11500;SDS011;5807;51.606;7.624;2022-09-03T13:11:21;3.90;;;2.53;;
11500;SDS011;5807;51.606;7.624;2022-09-03T13:13:51;8.60;;;2.30;;
11500;SDS011;5807;51.606;7.624;2022-09-03T13:19:13;8.17;;;2.40;;
11500;SDS011;5807;51.606;7.624;2022-09-03T13:21:47;2.43;;;2.23;;
11500;SDS011;5807;51.606;7.624;2022-09-03T13:24:24;2.20;;;2.10;;
11500;SDS011;5807;51.606;7.624;2022-09-03T13:27:06;2.30;;;2.20;;
11500;SDS011;5807;51.606;7.624;2022-09-03T13:29:49;2.17;;;1.83;;
11500;SDS011;5807;51.606;7.624;2022-09-03T13:32:33;2.40;;;2.20;;
11500;SDS011;5807;51.606;7.624;2022-09-03T13:35:08;2.40;;;2.30;;
11500;SDS011;5807;51.606;7.624;2022-09-03T13:37:39;2.90;;;2.30;;
11500;SDS011;5807;51.606;7.624;2022-09-03T13:40:13;2.73;;;2.47;;
11500;SDS011;5807;51.606;7.624;2022-09-03T13:42:44;2.30;;;2.20;;
11500;SDS011;5807;51.606;7.624;2022-09-03T13:45:20;2.40;;;2.20;;
11500;SDS011;5807;51.606;7.624;2022-09-03T13:47:55;2.17;;;2.07;;
11500;SDS011;5807;51.606;7.624;2022-09-03T13:50:44;2.97;;;2.43;;
11500;SDS011;5807;51.606;7.624;2022-09-03T13:53:18;5.03;;;2.13;;
11500;SDS011;5807;51.606;7.624;2022-09-03T13:55:59;2.33;;;2.20;;
11500;SDS011;5807;51.606;7.624;2022-09-03T13:58:32;2.20;;;2.10;;
11500;SDS011;5807;51.606;7.624;2022-09-03T14:01:06;3.60;;;1.87;;
11500;SDS011;5807;51.606;7.624;2022-09-03T14:03:42;2.27;;;2.13;;
11500;SDS011;5807;51.606;7.624;2022-09-03T14:06:13;2.50;;;2.30;;
11500;SDS011;5807;51.606;7.624;2022-09-03T14:08:55;2.40;;;2.20;;
11500;SDS011;5807;51.606;7.624;2022-09-03T14:11:29;2.20;;;2.00;;
11500;SDS011;5807;51.606;7.624;2022-09-03T14:14:07;2.10;;;2.00;;
11500;SDS011;5807;51.606;7.624;2022-09-03T14:16:43;2.30;;;2.20;;
11500;SDS011;5807;51.606;7.624;2022-09-03T14:19:16;2.27;;;2.10;;
11500;SDS011;5807;51.606;7.624;2022-09-03T14:21:50;3.40;;;1.90;;
11500;SDS011;5807;51.606;7.624;2022-09-03T14:24:21;2.20;;;2.03;;
11500;SDS011;5807;51.606;7.624;2022-09-03T14:26:53;2.00;;;1.90;;
11500;SDS011;5807;51.606;7.624;2022-09-03T14:29:23;2.50;;;2.07;;
11500;SDS011;5807;51.606;7.624;2022-09-03T14:32:07;2.67;;;2.40;;
11500;SDS011;5807;51.606;7.624;2022-09-03T14:41:25;2.50;;;2.33;;
11500;SDS011;5807;51.606;7.624;2022-09-03T14:44:21;2.00;;;1.90;;
11500;SDS011;5807;51.606;7.624;2022-09-03T14:47:02;2.90;;;2.20;;
11500;SDS011;5807;51.606;7.624;2022-09-03T14:49:42;3.30;;;2.30;;
11500;SDS011;5807;51.606;7.624;2022-09-03T14:55:14;2.77;;;2.40;;
11500;SDS011;5807;51.606;7.624;2022-09-03T14:58:06;3.17;;;2.87;;
11500;SDS011;5807;51.606;7.624;2022-09-03T15:00:48;2.30;;;2.20;;
11500;SDS011;5807;51.606;7.624;2022-09-03T15:03:25;2.27;;;2.17;;
11500;SDS011;5807;51.606;7.624;2022-09-03T15:06:18;2.67;;;2.47;;
11500;SDS011;5807;51.606;7.624;2022-09-03T15:09:08;4.07;;;2.40;;
11500;SDS011;5807;51.606;7.624;2022-09-03T15:11:45;3.37;;;1.97;;
11500;SDS011;5807;51.606;7.624;2022-09-03T15:14:18;2.07;;;1.97;;
11500;SDS011;5807;51.606;7.624;2022-09-03T15:16:52;1.67;;;1.60;;
11500;SDS011;5807;51.606;7.624;2022-09-03T15:19:32;3.00;;;1.50;;
11500;SDS011;5807;51.606;7.624;2022-09-03T15:22:14;1.83;;;1.70;;
11500;SDS011;5807;51.606;7.624;2022-09-03T15:24:53;4.20;;;1.67;;
11500;SDS011;5807;51.606;7.624;2022-09-03T15:27:33;2.80;;;1.77;;
11500;SDS011;5807;51.606;7.624;2022-09-03T15:30:10;3.20;;;1.60;;
11500;SDS011;5807;51.606;7.624;2022-09-03T15:32:52;1.80;;;1.70;;
11500;SDS011;5807;51.606;7.624;2022-09-03T15:35:35;1.50;;;1.50;;
11500;SDS011;5807;51.606;7.624;2022-09-03T15:38:11;1.50;;;1.40;;
11500;SDS011;5807;51.606;7.624;2022-09-03T15:40:47;1.67;;;1.57;;
11500;SDS011;5807;51.606;7.624;2022-09-03T15:43:20;1.90;;;1.80;;
11500;SDS011;5807;51.606;7.624;2022-09-03T15:45:51;1.67;;;1.57;;
11500;SDS011;5807;51.606;7.624;2022-09-03T15:48:28;1.67;;;1.57;;
11500;SDS011;5807;51.606;7.624;2022-09-03T15:51:06;2.00;;;1.30;;
11500;SDS011;5807;51.606;7.624;2022-09-03T15:53:40;2.97;;;1.60;;
11500;SDS011;5807;51.606;7.624;2022-09-03T15:56:14;1.60;;;1.50;;
11500;SDS011;5807;51.606;7.624;2022-09-03T15:58:50;1.80;;;1.70;;
11500;SDS011;5807;51.606;7.624;2022-09-03T16:01:29;3.30;;;2.07;;
11500;SDS011;5807;51.606;7.624;2022-09-03T16:04:07;2.20;;;2.10;;
11500;SDS011;5807;51.606;7.624;2022-09-03T16:06:54;2.00;;;1.90;;
11500;SDS011;5807;51.606;7.624;2022-09-03T16:09:31;2.57;;;2.37;;
11500;SDS011;5807;51.606;7.624;2022-09-03T16:12:07;1.97;;;1.87;;
11500;SDS011;5807;51.606;7.624;2022-09-03T16:14:43;3.57;;;2.10;;
11500;SDS011;5807;51.606;7.624;2022-09-03T16:17:21;2.47;;;2.00;;
11500;SDS011;5807;51.606;7.624;2022-09-03T16:19:56;2.50;;;1.90;;
11500;SDS011;5807;51.606;7.624;2022-09-03T16:22:29;3.60;;;1.93;;
11500;SDS011;5807;51.606;7.624;2022-09-03T16:25:01;4.87;;;2.20;;
11500;SDS011;5807;51.606;7.624;2022-09-03T16:27:32;3.00;;;1.80;;
11500;SDS011;5807;51.606;7.624;2022-09-03T16:30:06;2.67;;;1.97;;
11500;SDS011;5807;51.606;7.624;2022-09-03T16:32:40;1.90;;;1.80;;
11500;SDS011;5807;51.606;7.624;2022-09-03T16:35:23;2.60;;;2.27;;
11500;SDS011;5807;51.606;7.624;2022-09-03T16:38:03;2.00;;;1.90;;
11500;SDS011;5807;51.606;7.624;2022-09-03T16:41:00;2.93;;;2.73;;
11500;SDS011;5807;51.606;7.624;2022-09-03T16:43:40;2.20;;;2.00;;
11500;SDS011;5807;51.606;7.624;2022-09-03T16:46:15;2.30;;;2.10;;
11500;SDS011;5807;51.606;7.624;2022-09-03T16:48:52;4.93;;;2.43;;
11500;SDS011;5807;51.606;7.624;2022-09-03T16:51:36;3.07;;;2.57;;
11500;SDS011;5807;51.606;7.624;2022-09-03T16:54:14;3.90;;;2.23;;
11500;SDS011;5807;51.606;7.624;2022-09-03T16:56:54;2.40;;;2.20;;
11500;SDS011;5807;51.606;7.624;2022-09-03T16:59:33;2.00;;;1.90;;
11500;SDS011;5807;51.606;7.624;2022-09-03T17:02:16;2.73;;;1.90;;
11500;SDS011;5807;51.606;7.624;2022-09-03T17:05:01;2.17;;;1.60;;
11500;SDS011;5807;51.606;7.624;2022-09-03T17:07:41;3.23;;;2.13;;
11500;SDS011;5807;51.606;7.624;2022-09-03T17:10:22;3.03;;;1.90;;
11500;SDS011;5807;51.606;7.624;2022-09-03T17:13:02;1.73;;;1.63;;
11500;SDS011;5807;51.606;7.624;2022-09-03T17:37:08;2.80;;;1.80;;
11500;SDS011;5807;51.606;7.624;2022-09-03T18:07:47;2.07;;;1.87;;
11500;SDS011;5807;51.606;7.624;2022-09-03T18:11:21;3.53;;;1.80;;
11500;SDS011;5807;51.606;7.624;2022-09-03T18:13:59;2.10;;;1.90;;
11500;SDS011;5807;51.606;7.624;2022-09-03T18:16:34;2.47;;;1.80;;
11500;SDS011;5807;51.606;7.624;2022-09-03T18:19:05;2.00;;;1.90;;
11500;SDS011;5807;51.606;7.624;2022-09-03T18:21:43;1.90;;;1.80;;
11500;SDS011;5807;51.606;7.624;2022-09-03T18:24:32;5.20;;;2.20;;
11500;SDS011;5807;51.606;7.624;2022-09-03T18:27:26;1.90;;;1.80;;
11500;SDS011;5807;51.606;7.624;2022-09-03T18:30:15;2.00;;;1.90;;
11500;SDS011;5807;51.606;7.624;2022-09-03T18:33:01;4.20;;;2.10;;
11500;SDS011;5807;51.606;7.624;2022-09-03T18:35:45;2.50;;;1.63;;
11500;SDS011;5807;51.606;7.624;2022-09-03T18:38:31;1.90;;;1.80;;
11500;SDS011;5807;51.606;7.624;2022-09-03T18:41:29;2.47;;;2.00;;
11500;SDS011;5807;51.606;7.624;2022-09-03T18:44:26;2.50;;;2.30;;
11500;SDS011;5807;51.606;7.624;2022-09-03T18:47:26;3.33;;;1.80;;
11500;SDS011;5807;51.606;7.624;2022-09-03T18:50:21;3.43;;;2.23;;
11500;SDS011;5807;51.606;7.624;2022-09-03T18:53:13;2.30;;;2.20;;
11500;SDS011;5807;51.606;7.624;2022-09-03T18:56:03;3.73;;;2.27;;
11500;SDS011;5807;51.606;7.624;2022-09-03T18:59:03;2.50;;;2.30;;
11500;SDS011;5807;51.606;7.624;2022-09-03T19:01:58;2.50;;;2.30;;
11500;SDS011;5807;51.606;7.624;2022-09-03T19:04:53;2.50;;;2.40;;
11500;SDS011;5807;51.606;7.624;2022-09-03T19:07:51;2.70;;;2.53;;
11500;SDS011;5807;51.606;7.624;2022-09-03T19:10:42;3.23;;;2.40;;
11500;SDS011;5807;51.606;7.624;2022-09-03T19:13:40;2.90;;;2.60;;
11500;SDS011;5807;51.606;7.624;2022-09-03T19:16:29;2.93;;;2.60;;
11500;SDS011;5807;51.606;7.624;2022-09-03T19:19:25;3.40;;;3.10;;
11500;SDS011;5807;51.606;7.624;2022-09-03T19:22:27;3.63;;;3.33;;
11500;SDS011;5807;51.606;7.624;2022-09-03T19:25:15;4.20;;;3.90;;
11500;SDS011;5807;51.606;7.624;2022-09-03T19:28:06;4.27;;;3.20;;
11500;SDS011;5807;51.606;7.624;2022-09-03T19:30:59;4.60;;;4.20;;
11500;SDS011;5807;51.606;7.624;2022-09-03T19:34:07;5.37;;;4.87;;
11500;SDS011;5807;51.606;7.624;2022-09-03T19:36:59;5.97;;;5.43;;
11500;SDS011;5807;51.606;7.624;2022-09-03T19:39:52;6.40;;;5.57;;
11500;SDS011;5807;51.606;7.624;2022-09-03T19:43:15;10.27;;;9.27;;
11500;SDS011;5807;51.606;7.624;2022-09-03T19:46:09;14.30;;;12.80;;
11500;SDS011;5807;51.606;7.624;2022-09-03T19:49:02;14.63;;;13.07;;
11500;SDS011;5807;51.606;7.624;2022-09-03T19:51:58;14.87;;;13.33;;
11500;SDS011;5807;51.606;7.624;2022-09-03T19:54:45;20.10;;;12.87;;
11500;SDS011;5807;51.606;7.624;2022-09-03T19:57:34;12.60;;;11.03;;
11500;SDS011;5807;51.606;7.624;2022-09-03T20:00:19;9.10;;;8.17;;
11500;SDS011;5807;51.606;7.624;2022-09-03T20:03:03;10.10;;;7.80;;
11500;SDS011;5807;51.606;7.624;2022-09-03T20:05:50;6.40;;;5.80;;
11500;SDS011;5807;51.606;7.624;2022-09-03T20:08:35;3.83;;;3.47;;
11500;SDS011;5807;51.606;7.624;2022-09-03T20:11:20;4.00;;;3.67;;
11500;SDS011;5807;51.606;7.624;2022-09-03T20:13:49;3.10;;;2.70;;
11500;SDS011;5807;51.606;7.624;2022-09-03T20:16:34;5.23;;;3.27;;
11500;SDS011;5807;51.606;7.624;2022-09-03T20:19:09;2.80;;;2.60;;
11500;SDS011;5807;51.606;7.624;2022-09-03T20:21:46;3.70;;;2.90;;
11500;SDS011;5807;51.606;7.624;2022-09-03T20:24:21;3.20;;;2.50;;
11500;SDS011;5807;51.606;7.624;2022-09-03T20:27:00;2.83;;;2.70;;
11500;SDS011;5807;51.606;7.624;2022-09-03T20:29:47;2.80;;;2.60;;
11500;SDS011;5807;51.606;7.624;2022-09-03T20:32:25;4.13;;;2.87;;
11500;SDS011;5807;51.606;7.624;2022-09-03T20:35:12;3.50;;;2.70;;
11500;SDS011;5807;51.606;7.624;2022-09-03T20:37:49;3.67;;;2.87;;
11500;SDS011;5807;51.606;7.624;2022-09-03T20:40:24;4.10;;;3.53;;
11500;SDS011;5807;51.606;7.624;2022-09-03T20:43:02;6.43;;;5.40;;
11500;SDS011;5807;51.606;7.624;2022-09-03T20:45:48;5.37;;;4.87;;
11500;SDS011;5807;51.606;7.624;2022-09-03T20:48:26;6.67;;;5.90;;
11500;SDS011;5807;51.606;7.624;2022-09-03T20:51:03;7.70;;;6.90;;
11500;SDS011;5807;51.606;7.624;2022-09-03T20:53:49;7.67;;;6.60;;
11500;SDS011;5807;51.606;7.624;2022-09-03T20:56:35;15.67;;;12.83;;
11500;SDS011;5807;51.606;7.624;2022-09-03T20:59:22;17.97;;;14.43;;
11500;SDS011;5807;51.606;7.624;2022-09-03T21:02:00;16.97;;;13.53;;
11500;SDS011;5807;51.606;7.624;2022-09-03T21:04:38;13.73;;;12.30;;
11500;SDS011;5807;51.606;7.624;2022-09-03T21:07:17;12.50;;;8.87;;
11500;SDS011;5807;51.606;7.624;2022-09-03T21:09:52;10.67;;;7.07;;
11500;SDS011;5807;51.606;7.624;2022-09-03T21:12:27;5.73;;;5.13;;
11500;SDS011;5807;51.606;7.624;2022-09-03T21:15:11;5.93;;;5.33;;
11500;SDS011;5807;51.606;7.624;2022-09-03T21:18:00;6.47;;;4.97;;
11500;SDS011;5807;51.606;7.624;2022-09-03T21:20:34;4.77;;;4.37;;
11500;SDS011;5807;51.606;7.624;2022-09-03T21:23:18;5.87;;;4.13;;
11500;SDS011;5807;51.606;7.624;2022-09-03T21:25:51;5.07;;;3.90;;
11500;SDS011;5807;51.606;7.624;2022-09-03T21:28:21;5.87;;;3.60;;
11500;SDS011;5807;51.606;7.624;2022-09-03T21:30:53;3.73;;;3.30;;
11500;SDS011;5807;51.606;7.624;2022-09-03T21:33:26;10.53;;;4.37;;
11500;SDS011;5807;51.606;7.624;2022-09-03T21:35:57;4.87;;;3.47;;
11500;SDS011;5807;51.606;7.624;2022-09-03T21:38:31;7.07;;;3.50;;
11500;SDS011;5807;51.606;7.624;2022-09-03T21:41:04;4.40;;;3.60;;
11500;SDS011;5807;51.606;7.624;2022-09-03T21:43:41;6.40;;;3.80;;
11500;SDS011;5807;51.606;7.624;2022-09-03T21:46:16;4.50;;;3.60;;
11500;SDS011;5807;51.606;7.624;2022-09-03T21:48:48;3.60;;;3.30;;
11500;SDS011;5807;51.606;7.624;2022-09-03T21:51:19;4.17;;;3.10;;
11500;SDS011;5807;51.606;7.624;2022-09-03T21:53:51;3.90;;;3.50;;
11500;SDS011;5807;51.606;7.624;2022-09-03T21:56:34;5.00;;;3.80;;
11500;SDS011;5807;51.606;7.624;2022-09-03T21:59:17;6.57;;;4.27;;
11500;SDS011;5807;51.606;7.624;2022-09-03T22:01:57;4.63;;;3.67;;
11500;SDS011;5807;51.606;7.624;2022-09-03T22:04:30;4.00;;;3.47;;
11500;SDS011;5807;51.606;7.624;2022-09-03T22:06:59;3.50;;;3.30;;
11500;SDS011;5807;51.606;7.624;2022-09-03T22:09:34;3.80;;;2.90;;
11500;SDS011;5807;51.606;7.624;2022-09-03T22:12:11;3.60;;;3.30;;
11500;SDS011;5807;51.606;7.624;2022-09-03T22:14:42;3.47;;;3.17;;
11500;SDS011;5807;51.606;7.624;2022-09-03T22:17:14;3.10;;;2.80;;
11500;SDS011;5807;51.606;7.624;2022-09-03T22:19:44;3.53;;;2.83;;
11500;SDS011;5807;51.606;7.624;2022-09-03T22:22:12;4.67;;;2.90;;
11500;SDS011;5807;51.606;7.624;2022-09-03T22:24:45;3.63;;;3.13;;
11500;SDS011;5807;51.606;7.624;2022-09-03T22:27:18;3.97;;;2.70;;
11500;SDS011;5807;51.606;7.624;2022-09-03T22:29:52;3.60;;;2.87;;
11500;SDS011;5807;51.606;7.624;2022-09-03T22:32:30;3.03;;;2.83;;
11500;SDS011;5807;51.606;7.624;2022-09-03T22:35:13;2.83;;;2.67;;
11500;SDS011;5807;51.606;7.624;2022-09-03T22:38:19;3.30;;;2.43;;
11500;SDS011;5807;51.606;7.624;2022-09-03T22:41:07;2.70;;;2.40;;
11500;SDS011;5807;51.606;7.624;2022-09-03T22:43:46;2.90;;;2.70;;
11500;SDS011;5807;51.606;7.624;2022-09-03T22:46:18;4.20;;;3.00;;
11500;SDS011;5807;51.606;7.624;2022-09-03T22:49:00;3.40;;;3.10;;
11500;SDS011;5807;51.606;7.624;2022-09-03T22:51:39;3.63;;;3.40;;